Terminal Aerodrome Forecast
Issued by NWS

Home | Current Version | Previous Version | Text Only | Print | Product List | Glossary On
Versions: 1 2 3 4 5 6 7 8 9 10 11 12
000
FTUS43 KSGF 041700
TAFJLN
TAF
KJLN 041720Z 0418/0518 20014G23KT P6SM FEW050 SCT120
     FM050000 18009KT P6SM SCT250
     FM051430 19013G20KT P6SM BKN250=

USA.gov is the U.S. government's official web portal to all federal, state and local government web resources and services.